Time;durP1;ratioP1;P1;durP2;ratioP2;P2;SDS_P1;SDS_P2;PMS_P1;PMS_P2;Temp;Humidity;BMP_temperature;BMP_pressure;BME280_temperature;BME280_humidity;BME280_pressure;Samples;Min_cycle;Max_cycle;Signal;HPM_P1;HPM_P2
2023/06/27 00:00:35;;;;;;;;;;;20.50;65.20;;;;;;5132079;27;19937;-70
2023/06/27 00:03:00;;;;;;;;;;;20.50;65.40;;;;;;5113851;27;20406;-70
2023/06/27 00:05:26;;;;;;;;;;;20.40;65.20;;;;;;5099626;28;20563;-70
2023/06/27 00:07:51;;;;;;;;;;;20.40;65.30;;;;;;5111350;28;19950;-70
2023/06/27 00:10:17;;;;;;;;;;;20.40;65.50;;;;;;5111401;28;20318;-70
2023/06/27 00:12:44;;;;;;;;;;;20.40;65.50;;;;;;5111319;28;19911;-70
2023/06/27 00:15:10;;;;;;;;;;;20.30;65.60;;;;;;5111226;28;19919;-70
2023/06/27 00:17:40;;;;;;;;;;;20.30;65.50;;;;;;5110987;28;19912;-70
2023/06/27 00:20:09;;;;;;;;;;;20.30;65.60;;;;;;5110235;28;19918;-70
2023/06/27 00:22:40;;;;;;;;;;;20.30;65.50;;;;;;5110841;28;19951;-70
2023/06/27 00:25:07;;;;;;;;;;;20.20;65.60;;;;;;5111324;27;19919;-70
2023/06/27 00:27:32;;;;;;;;;;;20.20;65.70;;;;;;5110988;28;20020;-70
2023/06/27 00:29:58;;;;;;;;;;;20.20;65.70;;;;;;5110583;28;20524;-70
2023/06/27 00:32:23;;;;;;;;;;;20.20;66.40;;;;;;5110867;28;20380;-70
2023/06/27 00:34:49;;;;;;;;;;;20.20;65.80;;;;;;5110884;28;19912;-69
2023/06/27 00:37:14;;;;;;;;;;;20.20;65.90;;;;;;5109093;28;20288;-70
2023/06/27 00:39:40;;;;;;;;;;;20.20;65.80;;;;;;5110790;28;19915;-70
2023/06/27 00:42:06;;;;;;;;;;;20.10;65.90;;;;;;5110575;28;19914;-70
2023/06/27 00:44:31;;;;;;;;;;;20.10;66.80;;;;;;5109255;28;19912;-70
2023/06/27 00:46:58;;;;;;;;;;;20.10;66.00;;;;;;5110267;28;19912;-70
2023/06/27 00:49:23;;;;;;;;;;;20.10;66.20;;;;;;5110898;28;19947;-70
2023/06/27 00:51:50;;;;;;;;;;;20.10;66.30;;;;;;5110405;28;20378;-70
2023/06/27 00:54:16;;;;;;;;;;;20.00;66.20;;;;;;5109325;28;20471;-70
2023/06/27 00:56:42;;;;;;;;;;;20.00;66.30;;;;;;5108714;28;19970;-69
2023/06/27 00:59:08;;;;;;;;;;;20.00;66.30;;;;;;5110504;28;19959;-70
2023/06/27 01:01:33;;;;;;;;;;;20.00;66.30;;;;;;5110200;28;20526;-70
2023/06/27 01:03:59;;;;;;;;;;;20.00;66.50;;;;;;5110271;28;19922;-70
2023/06/27 01:06:30;;;;;;;;;;;20.00;66.50;;;;;;5110128;28;19915;-69
2023/06/27 01:08:59;;;;;;;;;;;19.90;66.70;;;;;;5109892;28;19918;-70
2023/06/27 01:11:27;;;;;;;;;;;19.90;66.40;;;;;;5108784;28;19912;-69
2023/06/27 01:13:55;;;;;;;;;;;19.90;66.60;;;;;;5110274;28;19911;-70
2023/06/27 01:16:22;;;;;;;;;;;19.90;66.80;;;;;;5109980;28;19912;-69
2023/06/27 01:18:48;;;;;;;;;;;19.90;66.60;;;;;;5104635;28;19994;-70
2023/06/27 01:21:16;;;;;;;;;;;19.80;66.80;;;;;;5109528;28;19911;-70
2023/06/27 01:23:55;;;;;;;;;;;19.80;66.80;;;;;;5109840;28;19924;-69
2023/06/27 01:26:21;;;;;;;;;;;19.80;66.90;;;;;;5108159;28;20277;-70
2023/06/27 01:28:46;;;;;;;;;;;19.80;67.00;;;;;;5108280;28;19939;-70
2023/06/27 01:31:21;;;;;;;;;;;19.80;66.90;;;;;;5108209;28;19918;-70
2023/06/27 01:33:53;;;;;;;;;;;19.80;66.90;;;;;;5109612;28;19926;-70
2023/06/27 01:36:18;;;;;;;;;;;19.70;67.10;;;;;;5109446;28;20007;-70
2023/06/27 01:39:04;;;;;;;;;;;19.70;66.90;;;;;;5109743;28;20010;-70
2023/06/27 01:41:31;;;;;;;;;;;19.70;67.20;;;;;;5099726;27;19916;-70
2023/06/27 01:43:57;;;;;;;;;;;19.70;67.10;;;;;;5109782;28;19942;-70
2023/06/27 01:46:23;;;;;;;;;;;19.70;67.40;;;;;;5109346;28;19966;-70
2023/06/27 01:48:50;;;;;;;;;;;19.70;67.20;;;;;;5109449;28;19912;-70
2023/06/27 01:51:15;;;;;;;;;;;19.60;67.30;;;;;;5108030;28;19915;-70
2023/06/27 01:53:41;;;;;;;;;;;19.70;67.40;;;;;;5109532;28;19927;-69
2023/06/27 01:56:08;;;;;;;;;;;19.60;67.50;;;;;;5109025;28;20394;-70
2023/06/27 01:58:34;;;;;;;;;;;19.60;67.20;;;;;;5109289;28;19912;-70
2023/06/27 02:00:59;;;;;;;;;;;19.60;67.50;;;;;;5109578;28;19915;-70
2023/06/27 02:03:25;;;;;;;;;;;19.50;67.50;;;;;;5099662;27;19912;-69
2023/06/27 02:05:51;;;;;;;;;;;19.50;67.50;;;;;;5100869;28;19934;-69
2023/06/27 02:08:16;;;;;;;;;;;19.50;67.40;;;;;;5109086;28;19911;-70
2023/06/27 02:10:42;;;;;;;;;;;19.60;67.80;;;;;;5109155;28;20097;-70
2023/06/27 02:13:07;;;;;;;;;;;19.50;67.70;;;;;;5107606;27;19923;-70
2023/06/27 02:15:33;;;;;;;;;;;19.50;67.90;;;;;;5108670;28;19914;-70
2023/06/27 02:17:59;;;;;;;;;;;19.50;67.80;;;;;;5109139;28;19934;-69
2023/06/27 02:20:25;;;;;;;;;;;19.50;67.90;;;;;;5102836;28;19912;-69
2023/06/27 02:22:51;;;;;;;;;;;19.50;68.10;;;;;;5108737;28;19919;-70
2023/06/27 02:25:16;;;;;;;;;;;19.50;68.00;;;;;;5108829;28;19916;-70
2023/06/27 02:27:42;;;;;;;;;;;19.50;67.80;;;;;;5108888;28;19912;-70
2023/06/27 02:30:08;;;;;;;;;;;19.50;67.90;;;;;;5108889;28;19912;-69
2023/06/27 02:32:33;;;;;;;;;;;19.40;67.70;;;;;;5109056;28;19950;-70
2023/06/27 02:34:59;;;;;;;;;;;19.40;67.90;;;;;;5108877;28;20376;-70
2023/06/27 02:37:24;;;;;;;;;;;19.40;67.90;;;;;;5107347;28;19934;-70
2023/06/27 02:39:52;;;;;;;;;;;19.40;67.90;;;;;;5108875;28;19972;-69
2023/06/27 02:42:17;;;;;;;;;;;19.40;67.90;;;;;;5109150;28;19911;-69
2023/06/27 02:44:43;;;;;;;;;;;19.40;67.90;;;;;;5109175;28;20002;-69
2023/06/27 02:47:09;;;;;;;;;;;19.40;67.90;;;;;;5107084;28;19919;-69
2023/06/27 02:49:34;;;;;;;;;;;19.40;68.10;;;;;;5108983;28;20383;-69
2023/06/27 02:52:00;;;;;;;;;;;19.30;67.90;;;;;;5110634;28;19916;-69
2023/06/27 02:54:25;;;;;;;;;;;19.40;68.10;;;;;;5113038;28;20350;-69
2023/06/27 02:56:51;;;;;;;;;;;19.30;68.10;;;;;;5112741;28;19908;-70
2023/06/27 02:59:16;;;;;;;;;;;19.30;68.00;;;;;;5112998;28;19928;-69
2023/06/27 03:01:42;;;;;;;;;;;19.30;68.00;;;;;;5111253;28;19911;-69
2023/06/27 03:04:09;;;;;;;;;;;19.30;68.10;;;;;;5112764;28;20402;-69
2023/06/27 03:06:34;;;;;;;;;;;19.30;68.20;;;;;;5110946;28;19994;-70
2023/06/27 03:09:00;;;;;;;;;;;19.30;68.30;;;;;;5112190;28;20462;-71
2023/06/27 03:11:25;;;;;;;;;;;19.30;68.30;;;;;;5112287;28;19916;-69
2023/06/27 03:13:51;;;;;;;;;;;19.20;68.20;;;;;;5112626;28;19916;-69
2023/06/27 03:16:16;;;;;;;;;;;19.30;68.20;;;;;;5112151;28;19918;-70
2023/06/27 03:18:42;;;;;;;;;;;19.20;68.10;;;;;;5111828;28;19930;-69
2023/06/27 03:21:07;;;;;;;;;;;19.30;68.20;;;;;;5111703;28;19908;-69
2023/06/27 03:23:33;;;;;;;;;;;19.20;68.30;;;;;;5112071;28;20329;-69
2023/06/27 03:25:58;;;;;;;;;;;19.20;68.10;;;;;;5111840;28;20360;-69
2023/06/27 03:28:24;;;;;;;;;;;19.30;68.20;;;;;;5112233;28;19919;-70
2023/06/27 03:30:49;;;;;;;;;;;19.30;68.30;;;;;;5112214;28;19919;-70
2023/06/27 03:33:15;;;;;;;;;;;19.30;68.40;;;;;;5110746;28;19914;-70
2023/06/27 03:35:40;;;;;;;;;;;19.20;68.10;;;;;;5112230;28;19918;-69
2023/06/27 03:38:06;;;;;;;;;;;19.20;68.30;;;;;;5112158;28;19961;-70
2023/06/27 03:40:31;;;;;;;;;;;19.20;68.30;;;;;;5111311;28;19918;-70
2023/06/27 03:42:57;;;;;;;;;;;19.20;68.30;;;;;;5111956;28;19912;-69
2023/06/27 03:45:22;;;;;;;;;;;19.20;68.30;;;;;;5111734;28;19915;-70
2023/06/27 03:47:48;;;;;;;;;;;19.20;68.20;;;;;;5111985;28;19947;-69
2023/06/27 03:50:14;;;;;;;;;;;19.20;68.30;;;;;;5111533;28;19923;-69
2023/06/27 03:52:39;;;;;;;;;;;19.20;68.30;;;;;;5111758;28;20372;-69
2023/06/27 03:55:05;;;;;;;;;;;19.20;68.40;;;;;;5111661;28;19911;-70
2023/06/27 03:57:31;;;;;;;;;;;19.20;68.40;;;;;;5111495;27;19995;-69
2023/06/27 03:59:56;;;;;;;;;;;19.20;68.40;;;;;;5111738;28;19913;-69
2023/06/27 04:02:22;;;;;;;;;;;19.20;68.40;;;;;;5111425;27;19918;-69
2023/06/27 04:04:47;;;;;;;;;;;19.20;68.40;;;;;;5115332;27;19908;-69
2023/06/27 04:07:14;;;;;;;;;;;19.20;68.40;;;;;;5111276;28;19916;-69
2023/06/27 04:09:40;;;;;;;;;;;19.20;68.40;;;;;;5111498;27;19924;-69
2023/06/27 04:12:06;;;;;;;;;;;19.20;68.40;;;;;;5111178;28;19912;-69
2023/06/27 04:14:31;;;;;;;;;;;19.20;68.40;;;;;;5111426;28;20478;-69
2023/06/27 04:16:57;;;;;;;;;;;19.20;68.10;;;;;;5111143;28;19918;-70
2023/06/27 04:19:22;;;;;;;;;;;19.20;68.50;;;;;;5105331;28;20365;-70
2023/06/27 04:21:48;;;;;;;;;;;19.10;68.50;;;;;;5109313;28;19912;-69
2023/06/27 04:24:13;;;;;;;;;;;19.20;68.50;;;;;;5111099;28;19920;-70
2023/06/27 04:26:39;;;;;;;;;;;19.20;68.50;;;;;;5111197;28;19998;-69
2023/06/27 04:29:04;;;;;;;;;;;19.20;68.50;;;;;;5111064;28;20303;-69
2023/06/27 04:31:30;;;;;;;;;;;19.20;68.40;;;;;;5111013;28;19919;-69
2023/06/27 04:33:59;;;;;;;;;;;19.20;68.40;;;;;;5109600;28;19986;-69
2023/06/27 04:36:25;;;;;;;;;;;19.20;68.50;;;;;;5109193;28;19918;-70
2023/06/27 04:38:51;;;;;;;;;;;19.20;68.40;;;;;;5109344;28;20447;-69
2023/06/27 04:41:16;;;;;;;;;;;19.20;68.50;;;;;;5110839;28;19912;-70
2023/06/27 04:43:42;;;;;;;;;;;19.20;68.50;;;;;;5110806;28;19912;-70
2023/06/27 04:46:07;;;;;;;;;;;19.20;68.50;;;;;;5110541;28;19969;-70
2023/06/27 04:48:33;;;;;;;;;;;19.20;68.40;;;;;;5110565;28;19912;-69
2023/06/27 04:50:58;;;;;;;;;;;19.20;68.40;;;;;;5110408;28;20006;-69
2023/06/27 04:53:24;;;;;;;;;;;19.20;68.40;;;;;;5109094;28;19915;-70
2023/06/27 04:55:50;;;;;;;;;;;19.20;68.30;;;;;;5109050;28;19964;-70
2023/06/27 04:58:16;;;;;;;;;;;19.20;68.40;;;;;;5110629;28;19915;-69
2023/06/27 05:00:42;;;;;;;;;;;19.30;68.40;;;;;;5110521;27;19911;-69
2023/06/27 05:03:08;;;;;;;;;;;19.30;68.40;;;;;;5110087;28;19908;-70
2023/06/27 05:05:34;;;;;;;;;;;19.30;68.30;;;;;;5109991;28;19911;-69
2023/06/27 05:08:00;;;;;;;;;;;19.30;68.30;;;;;;5110080;28;21191;-69
2023/06/27 05:10:26;;;;;;;;;;;19.30;68.30;;;;;;5110152;28;19943;-70
2023/06/27 05:12:51;;;;;;;;;;;19.40;68.30;;;;;;5110344;28;20577;-69
2023/06/27 05:15:17;;;;;;;;;;;19.40;68.20;;;;;;5109097;28;19918;-70
2023/06/27 05:17:47;;;;;;;;;;;19.40;68.20;;;;;;5109733;28;20011;-70
2023/06/27 05:20:13;;;;;;;;;;;19.40;68.20;;;;;;5103884;28;19919;-69
2023/06/27 05:22:38;;;;;;;;;;;19.40;68.10;;;;;;5109575;28;19916;-69
2023/06/27 05:25:04;;;;;;;;;;;19.50;68.20;;;;;;5109871;28;19912;-69
2023/06/27 05:27:29;;;;;;;;;;;19.50;68.30;;;;;;5109893;28;19916;-70
2023/06/27 05:29:55;;;;;;;;;;;19.50;68.30;;;;;;5109978;28;20321;-70
2023/06/27 05:32:20;;;;;;;;;;;19.50;68.10;;;;;;5109809;28;19912;-70
2023/06/27 05:34:46;;;;;;;;;;;19.50;68.10;;;;;;5109863;28;20431;-70
2023/06/27 05:37:11;;;;;;;;;;;19.50;68.10;;;;;;5109387;28;19916;-70
2023/06/27 05:39:37;;;;;;;;;;;19.60;68.20;;;;;;5108282;28;20261;-70
2023/06/27 05:42:02;;;;;;;;;;;19.60;68.10;;;;;;5108078;28;19908;-70
2023/06/27 05:44:28;;;;;;;;;;;19.60;68.10;;;;;;5109739;28;19962;-70
2023/06/27 05:46:53;;;;;;;;;;;19.60;68.10;;;;;;5109417;28;19911;-70
2023/06/27 05:49:19;;;;;;;;;;;19.70;68.10;;;;;;5109768;28;20558;-70
2023/06/27 05:51:44;;;;;;;;;;;19.70;68.20;;;;;;5109456;28;19924;-70
2023/06/27 05:54:10;;;;;;;;;;;19.70;68.20;;;;;;5109429;28;19915;-70
2023/06/27 05:56:35;;;;;;;;;;;19.70;68.70;;;;;;5117384;27;19908;-69
2023/06/27 05:59:01;;;;;;;;;;;19.70;68.10;;;;;;5130220;27;19946;-70
2023/06/27 06:01:26;;;;;;;;;;;19.70;68.20;;;;;;5130028;27;19911;-70
2023/06/27 06:03:53;;;;;;;;;;;19.70;68.20;;;;;;5097113;27;19912;-70
2023/06/27 06:06:20;;;;;;;;;;;19.70;68.30;;;;;;5104662;28;19918;-70
2023/06/27 06:08:45;;;;;;;;;;;19.70;68.30;;;;;;5109202;28;19919;-69
2023/06/27 06:11:11;;;;;;;;;;;19.70;68.20;;;;;;5108844;28;19911;-70
2023/06/27 06:13:36;;;;;;;;;;;19.70;68.40;;;;;;5109153;28;19912;-69
2023/06/27 06:16:02;;;;;;;;;;;19.70;68.40;;;;;;5107591;28;20029;-70
2023/06/27 06:18:27;;;;;;;;;;;19.60;68.30;;;;;;5104804;28;19912;-70
2023/06/27 06:20:53;;;;;;;;;;;19.70;68.40;;;;;;5104098;28;20280;-70
2023/06/27 06:23:18;;;;;;;;;;;19.70;68.30;;;;;;5109050;28;20407;-69
2023/06/27 06:25:44;;;;;;;;;;;19.60;68.50;;;;;;5108594;28;19911;-70
2023/06/27 06:28:09;;;;;;;;;;;19.60;68.40;;;;;;5108866;28;19916;-70
2023/06/27 06:30:35;;;;;;;;;;;19.60;68.50;;;;;;5108948;28;19973;-71
2023/06/27 06:33:01;;;;;;;;;;;19.60;68.40;;;;;;5108852;28;19915;-70
2023/06/27 06:35:26;;;;;;;;;;;19.60;68.50;;;;;;5108831;28;19911;-70
2023/06/27 06:37:52;;;;;;;;;;;19.60;68.40;;;;;;5109009;28;20002;-69
2023/06/27 06:40:17;;;;;;;;;;;19.60;68.50;;;;;;5107648;28;19918;-70
2023/06/27 06:42:43;;;;;;;;;;;19.60;68.60;;;;;;5108757;28;19957;-69
2023/06/27 06:45:09;;;;;;;;;;;19.70;68.60;;;;;;5108754;28;20626;-70
2023/06/27 06:47:34;;;;;;;;;;;19.70;69.10;;;;;;5107218;28;19911;-70
2023/06/27 06:50:00;;;;;;;;;;;19.60;68.50;;;;;;5108763;28;19916;-70
2023/06/27 06:52:25;;;;;;;;;;;19.70;68.50;;;;;;5108673;28;19912;-70
2023/06/27 06:54:51;;;;;;;;;;;19.70;68.60;;;;;;5107314;28;20359;-70
2023/06/27 06:57:16;;;;;;;;;;;19.70;68.60;;;;;;5108614;28;19973;-69
2023/06/27 06:59:42;;;;;;;;;;;19.70;68.60;;;;;;5108534;28;19918;-70
2023/06/27 07:02:07;;;;;;;;;;;19.70;68.60;;;;;;5105706;28;19912;-70
2023/06/27 07:04:33;;;;;;;;;;;19.80;68.60;;;;;;5108672;28;19912;-70
2023/06/27 07:06:59;;;;;;;;;;;19.80;68.60;;;;;;5108179;28;19918;-69
2023/06/27 07:09:24;;;;;;;;;;;19.70;68.60;;;;;;5108316;28;19958;-69
2023/06/27 07:11:51;;;;;;;;;;;19.70;68.90;;;;;;5107091;28;19911;-70
2023/06/27 07:14:19;;;;;;;;;;;19.80;68.70;;;;;;5108770;28;19964;-70
2023/06/27 07:16:45;;;;;;;;;;;19.80;68.80;;;;;;5108362;28;19918;-70
2023/06/27 07:19:10;;;;;;;;;;;19.70;68.60;;;;;;5108410;28;19907;-69
2023/06/27 07:21:37;;;;;;;;;;;19.80;68.50;;;;;;5108255;28;19931;-69
2023/06/27 07:24:03;;;;;;;;;;;19.80;68.80;;;;;;5108327;28;19926;-70
2023/06/27 07:26:28;;;;;;;;;;;19.80;68.60;;;;;;5108227;28;19912;-69
2023/06/27 07:28:54;;;;;;;;;;;19.80;68.70;;;;;;5108630;28;19923;-69
2023/06/27 07:31:19;;;;;;;;;;;19.80;68.60;;;;;;5108551;28;20370;-69
2023/06/27 07:33:45;;;;;;;;;;;19.80;69.60;;;;;;5108388;28;19916;-70
2023/06/27 07:36:10;;;;;;;;;;;19.80;68.80;;;;;;5108134;28;20345;-70
2023/06/27 07:38:36;;;;;;;;;;;19.80;68.70;;;;;;5109572;28;20006;-70
2023/06/27 07:41:02;;;;;;;;;;;19.90;68.70;;;;;;5112072;28;19912;-69
2023/06/27 07:43:27;;;;;;;;;;;19.80;68.70;;;;;;5110530;28;19911;-69
2023/06/27 07:45:53;;;;;;;;;;;19.90;68.80;;;;;;5111919;28;19955;-70
2023/06/27 07:48:18;;;;;;;;;;;19.90;68.90;;;;;;5112321;27;19918;-70
2023/06/27 07:50:43;;;;;;;;;;;19.90;68.80;;;;;;5130084;27;19915;-70
2023/06/27 07:53:09;;;;;;;;;;;19.90;68.80;;;;;;5106241;27;19916;-70
2023/06/27 07:55:34;;;;;;;;;;;19.90;68.70;;;;;;5119203;27;19915;-70
2023/06/27 07:58:00;;;;;;;;;;;19.90;68.70;;;;;;5122048;27;19908;-70
2023/06/27 08:00:25;;;;;;;;;;;19.90;68.80;;;;;;5111575;28;19976;-70
2023/06/27 08:02:51;;;;;;;;;;;19.90;69.00;;;;;;5111480;28;19911;-70
2023/06/27 08:05:18;;;;;;;;;;;19.90;69.00;;;;;;5110949;28;19912;-70
2023/06/27 08:07:43;;;;;;;;;;;20.00;68.80;;;;;;5111452;28;19950;-70
2023/06/27 08:10:09;;;;;;;;;;;20.00;69.40;;;;;;5111541;27;20679;-70
2023/06/27 08:12:35;;;;;;;;;;;20.00;68.80;;;;;;5111614;28;20429;-70
2023/06/27 08:15:00;;;;;;;;;;;20.00;69.10;;;;;;5111415;28;19919;-70
2023/06/27 08:17:26;;;;;;;;;;;20.00;69.20;;;;;;5110930;28;19964;-70
2023/06/27 08:19:51;;;;;;;;;;;20.10;68.70;;;;;;5110610;28;19912;-70
2023/06/27 08:22:17;;;;;;;;;;;20.10;68.70;;;;;;5109593;28;19959;-69
2023/06/27 08:24:42;;;;;;;;;;;20.10;68.60;;;;;;5111226;28;19937;-70
2023/06/27 08:27:08;;;;;;;;;;;20.10;68.70;;;;;;5110788;28;19918;-70
2023/06/27 08:29:33;;;;;;;;;;;20.20;68.70;;;;;;5111179;28;19918;-70
2023/06/27 08:31:59;;;;;;;;;;;20.20;68.40;;;;;;5111092;28;19916;-70
2023/06/27 08:34:26;;;;;;;;;;;20.20;68.70;;;;;;5110955;28;19912;-70
2023/06/27 08:36:51;;;;;;;;;;;20.30;68.40;;;;;;5110743;28;20400;-70
2023/06/27 08:39:17;;;;;;;;;;;20.30;68.80;;;;;;5110995;28;20006;-70
2023/06/27 08:41:45;;;;;;;;;;;20.30;68.60;;;;;;5110863;28;20420;-70
2023/06/27 08:44:11;;;;;;;;;;;20.30;68.90;;;;;;5110809;28;20351;-69
2023/06/27 08:46:37;;;;;;;;;;;20.40;68.70;;;;;;5110592;28;19907;-70
2023/06/27 08:49:03;;;;;;;;;;;20.40;68.40;;;;;;5104872;27;19927;-70
2023/06/27 08:51:30;;;;;;;;;;;20.40;68.60;;;;;;5109205;27;19984;-69
2023/06/27 08:53:58;;;;;;;;;;;20.50;68.50;;;;;;5109271;28;20295;-70
2023/06/27 08:56:26;;;;;;;;;;;20.50;68.10;;;;;;5110164;28;19907;-70
2023/06/27 08:58:55;;;;;;;;;;;20.70;68.10;;;;;;5110287;28;19915;-70
2023/06/27 09:01:23;;;;;;;;;;;20.70;68.10;;;;;;5109995;27;19923;-70
2023/06/27 09:03:48;;;;;;;;;;;20.70;67.80;;;;;;5108431;28;19908;-70
2023/06/27 09:06:14;;;;;;;;;;;20.70;67.80;;;;;;5109434;28;19956;-70
2023/06/27 09:08:40;;;;;;;;;;;20.80;67.80;;;;;;5107236;28;19927;-70
2023/06/27 09:11:09;;;;;;;;;;;20.80;67.80;;;;;;5090186;28;20556;-71
2023/06/27 09:13:36;;;;;;;;;;;20.80;67.70;;;;;;5110009;28;19919;-71
2023/06/27 09:16:02;;;;;;;;;;;20.80;68.20;;;;;;5109401;28;19950;-71
2023/06/27 09:18:28;;;;;;;;;;;20.80;67.80;;;;;;5109842;28;19947;-70
2023/06/27 09:20:54;;;;;;;;;;;20.90;67.80;;;;;;5108219;28;20477;-70
2023/06/27 09:23:20;;;;;;;;;;;20.90;67.60;;;;;;5109609;28;19939;-70
2023/06/27 09:25:45;;;;;;;;;;;21.00;67.70;;;;;;5108137;28;19916;-70
2023/06/27 09:28:17;;;;;;;;;;;21.10;67.50;;;;;;5109837;28;20413;-70
2023/06/27 09:30:55;;;;;;;;;;;21.20;67.20;;;;;;5109343;28;20469;-71
2023/06/27 09:33:21;;;;;;;;;;;21.30;67.00;;;;;;5109505;28;19911;-71
2023/06/27 09:35:47;;;;;;;;;;;21.40;66.90;;;;;;5109238;28;19912;-70
2023/06/27 09:38:12;;;;;;;;;;;21.40;66.80;;;;;;5109556;28;19911;-70
2023/06/27 09:40:38;;;;;;;;;;;21.40;66.80;;;;;;5109745;27;19911;-70
2023/06/27 09:43:07;;;;;;;;;;;21.50;66.70;;;;;;5110529;27;19911;-70
2023/06/27 09:45:32;;;;;;;;;;;21.50;66.60;;;;;;5108458;28;19912;-70
2023/06/27 09:47:58;;;;;;;;;;;21.50;66.60;;;;;;5109115;28;20405;-70
2023/06/27 09:50:27;;;;;;;;;;;21.60;66.60;;;;;;5109051;28;19937;-71
2023/06/27 09:52:54;;;;;;;;;;;21.60;66.60;;;;;;5109361;28;19918;-70
2023/06/27 09:55:19;;;;;;;;;;;21.60;66.50;;;;;;5108855;28;19941;-70
2023/06/27 09:57:45;;;;;;;;;;;21.60;66.40;;;;;;5109166;28;19920;-70
2023/06/27 10:00:11;;;;;;;;;;;21.70;66.20;;;;;;5109199;28;19908;-70
2023/06/27 10:02:37;;;;;;;;;;;21.80;66.10;;;;;;5108325;28;19907;-70
2023/06/27 10:05:03;;;;;;;;;;;21.90;66.00;;;;;;5108873;28;19915;-71
2023/06/27 10:07:32;;;;;;;;;;;21.90;65.90;;;;;;5108733;28;20325;-71
2023/06/27 10:09:57;;;;;;;;;;;22.00;65.80;;;;;;5108608;28;19970;-70
2023/06/27 10:12:23;;;;;;;;;;;22.10;65.90;;;;;;5108758;28;20371;-70
2023/06/27 10:14:49;;;;;;;;;;;22.20;65.60;;;;;;5109021;28;19912;-70
2023/06/27 10:17:18;;;;;;;;;;;22.20;65.30;;;;;;5108534;28;19912;-70
2023/06/27 10:19:44;;;;;;;;;;;22.20;65.10;;;;;;5095411;28;19947;-70
2023/06/27 10:22:11;;;;;;;;;;;22.30;65.20;;;;;;5088625;28;19962;-71
2023/06/27 10:24:41;;;;;;;;;;;22.40;65.00;;;;;;5088738;28;19912;-71
2023/06/27 10:27:07;;;;;;;;;;;22.40;65.20;;;;;;5088242;28;19915;-70
2023/06/27 10:29:33;;;;;;;;;;;22.30;65.00;;;;;;5088424;28;19916;-70
2023/06/27 10:31:59;;;;;;;;;;;22.30;65.00;;;;;;5088995;28;20041;-70
2023/06/27 10:34:24;;;;;;;;;;;22.30;65.20;;;;;;5108980;28;19908;-70
2023/06/27 10:36:56;;;;;;;;;;;22.30;65.20;;;;;;5108256;28;19918;-70
2023/06/27 10:39:25;;;;;;;;;;;22.30;65.20;;;;;;5108790;28;20486;-71
2023/06/27 10:41:54;;;;;;;;;;;22.30;65.40;;;;;;5107039;28;19940;-71
2023/06/27 10:44:20;;;;;;;;;;;22.30;65.20;;;;;;5107238;28;19996;-70
2023/06/27 10:46:45;;;;;;;;;;;22.20;65.40;;;;;;5107634;28;20536;-70
2023/06/27 10:49:11;;;;;;;;;;;22.20;65.00;;;;;;5108369;28;19959;-71
2023/06/27 10:51:38;;;;;;;;;;;22.20;65.60;;;;;;5106850;28;19907;-71
2023/06/27 10:54:11;;;;;;;;;;;22.30;65.60;;;;;;5108506;28;19908;-71
2023/06/27 10:56:37;;;;;;;;;;;22.30;65.50;;;;;;5108591;28;19933;-71
2023/06/27 10:59:04;;;;;;;;;;;22.30;65.40;;;;;;5108252;28;19915;-70
2023/06/27 11:01:30;;;;;;;;;;;22.30;65.30;;;;;;5107287;28;19927;-71
2023/06/27 11:03:59;;;;;;;;;;;22.40;65.20;;;;;;5108735;28;19908;-70
2023/06/27 11:06:40;;;;;;;;;;;22.40;65.30;;;;;;5108107;28;19912;-70
2023/06/27 11:09:06;;;;;;;;;;;22.40;65.20;;;;;;5108508;28;19969;-70
2023/06/27 11:11:33;;;;;;;;;;;22.40;65.30;;;;;;5108866;28;19908;-71
2023/06/27 11:14:06;;;;;;;;;;;22.40;65.30;;;;;;5110319;28;20030;-71
2023/06/27 11:16:35;;;;;;;;;;;22.50;65.20;;;;;;5112444;27;20004;-70
2023/06/27 11:19:01;;;;;;;;;;;22.50;65.10;;;;;;5107602;28;20010;-71
2023/06/27 11:21:26;;;;;;;;;;;22.60;64.70;;;;;;5090459;28;19919;-70
2023/06/27 11:23:56;;;;;;;;;;;22.60;65.10;;;;;;5091963;28;20637;-71
2023/06/27 11:26:22;;;;;;;;;;;22.60;64.80;;;;;;5091730;28;19915;-70
2023/06/27 11:28:48;;;;;;;;;;;22.70;64.30;;;;;;5091704;28;19919;-70
2023/06/27 11:31:13;;;;;;;;;;;22.70;64.60;;;;;;5091671;28;19912;-71
2023/06/27 11:33:39;;;;;;;;;;;22.70;64.10;;;;;;5106422;28;19973;-71
2023/06/27 11:36:05;;;;;;;;;;;22.80;63.70;;;;;;5111781;28;19934;-70
2023/06/27 11:38:31;;;;;;;;;;;22.80;63.40;;;;;;5112197;28;20356;-71
2023/06/27 11:40:57;;;;;;;;;;;23.00;64.10;;;;;;5112195;28;20265;-70
2023/06/27 11:43:22;;;;;;;;;;;23.10;63.60;;;;;;5112051;28;19919;-70
2023/06/27 11:45:48;;;;;;;;;;;23.20;63.40;;;;;;5118805;27;19915;-71
2023/06/27 11:48:14;;;;;;;;;;;23.30;63.30;;;;;;5111642;27;19911;-71
2023/06/27 11:50:56;;;;;;;;;;;23.30;63.30;;;;;;5111642;27;19916;-71
2023/06/27 11:53:23;;;;;;;;;;;23.30;63.30;;;;;;5111927;28;19912;-71
2023/06/27 11:55:48;;;;;;;;;;;23.30;63.40;;;;;;5111627;28;20375;-70
2023/06/27 11:58:15;;;;;;;;;;;23.30;63.40;;;;;;5110383;28;19912;-70
2023/06/27 12:00:41;;;;;;;;;;;23.30;63.70;;;;;;5111597;28;19915;-70
2023/06/27 12:03:08;;;;;;;;;;;23.20;63.60;;;;;;5111770;28;19912;-70
2023/06/27 12:05:33;;;;;;;;;;;23.20;63.90;;;;;;5109945;28;20375;-71
2023/06/27 12:08:01;;;;;;;;;;;23.10;64.00;;;;;;5111671;28;19912;-71
2023/06/27 12:10:34;;;;;;;;;;;23.10;64.10;;;;;;5110000;28;19922;-71
2023/06/27 12:13:03;;;;;;;;;;;23.10;64.10;;;;;;5111473;28;19964;-71
2023/06/27 12:15:29;;;;;;;;;;;23.20;63.70;;;;;;5110549;27;20387;-71
2023/06/27 12:18:01;;;;;;;;;;;23.20;63.90;;;;;;5111287;28;19912;-71
2023/06/27 12:20:39;;;;;;;;;;;23.30;63.90;;;;;;5091456;28;19931;-71
2023/06/27 12:23:04;;;;;;;;;;;23.30;63.70;;;;;;5090574;28;19931;-71
2023/06/27 12:25:30;;;;;;;;;;;23.30;63.40;;;;;;5090034;28;19912;-71
2023/06/27 12:27:55;;;;;;;;;;;23.20;63.20;;;;;;5091008;28;20361;-71
2023/06/27 12:30:21;;;;;;;;;;;23.20;63.50;;;;;;5090634;28;19918;-71
2023/06/27 12:32:46;;;;;;;;;;;23.20;63.40;;;;;;5097647;28;19969;-71
2023/06/27 12:35:17;;;;;;;;;;;23.30;63.80;;;;;;5110799;28;19918;-71
2023/06/27 12:37:46;;;;;;;;;;;23.30;63.00;;;;;;5110933;28;19955;-71
2023/06/27 12:40:12;;;;;;;;;;;23.30;63.30;;;;;;5110966;28;19915;-71
2023/06/27 12:42:37;;;;;;;;;;;23.30;63.20;;;;;;5109525;28;19912;-71
2023/06/27 12:45:03;;;;;;;;;;;23.40;62.70;;;;;;5110647;28;19912;-70
2023/06/27 12:47:28;;;;;;;;;;;23.40;62.90;;;;;;5109971;28;19912;-71
2023/06/27 12:49:54;;;;;;;;;;;23.60;62.60;;;;;;5108356;28;20410;-72
2023/06/27 12:52:19;;;;;;;;;;;23.70;62.10;;;;;;5108286;28;19916;-71
2023/06/27 12:54:45;;;;;;;;;;;23.70;62.10;;;;;;5109909;27;19907;-71
2023/06/27 12:57:10;;;;;;;;;;;23.80;60.80;;;;;;5109483;28;20367;-71
2023/06/27 12:59:36;;;;;;;;;;;23.80;60.70;;;;;;5109823;28;19998;-71
2023/06/27 13:02:01;;;;;;;;;;;23.90;61.00;;;;;;5109188;28;19908;-71
2023/06/27 13:04:29;;;;;;;;;;;24.00;61.20;;;;;;5109482;28;19934;-71
2023/06/27 13:06:55;;;;;;;;;;;24.10;61.30;;;;;;5109081;28;19965;-71
2023/06/27 13:09:21;;;;;;;;;;;24.20;60.90;;;;;;5109412;28;19943;-71
2023/06/27 13:11:46;;;;;;;;;;;24.30;59.90;;;;;;5108022;28;19980;-71
2023/06/27 13:14:12;;;;;;;;;;;24.40;60.60;;;;;;5109301;28;19916;-71
2023/06/27 13:16:37;;;;;;;;;;;24.50;61.00;;;;;;5109042;28;19907;-71
2023/06/27 13:19:07;;;;;;;;;;;24.50;60.70;;;;;;5109154;28;20466;-71
2023/06/27 13:21:33;;;;;;;;;;;24.50;59.90;;;;;;5109096;28;19918;-71
2023/06/27 13:23:58;;;;;;;;;;;24.60;60.00;;;;;;5109231;28;19927;-72
2023/06/27 13:26:24;;;;;;;;;;;24.70;60.20;;;;;;5109139;28;20463;-71
2023/06/27 13:28:51;;;;;;;;;;;24.70;60.10;;;;;;5108480;28;20296;-71
2023/06/27 13:31:17;;;;;;;;;;;24.70;59.40;;;;;;5108870;28;19912;-71
2023/06/27 13:33:42;;;;;;;;;;;24.80;59.90;;;;;;5108977;28;19934;-71
2023/06/27 13:36:08;;;;;;;;;;;24.90;59.10;;;;;;5108450;28;19916;-71
2023/06/27 13:38:34;;;;;;;;;;;24.90;59.00;;;;;;5108338;28;19912;-72
2023/06/27 13:40:59;;;;;;;;;;;25.00;59.10;;;;;;5109749;28;20750;-71
2023/06/27 13:43:25;;;;;;;;;;;25.10;59.30;;;;;;5109899;28;19912;-71
2023/06/27 13:45:53;;;;;;;;;;;25.20;59.60;;;;;;5108323;28;19912;-71
2023/06/27 13:48:19;;;;;;;;;;;25.20;59.10;;;;;;5108956;28;19930;-71
2023/06/27 13:50:45;;;;;;;;;;;25.20;59.10;;;;;;5109197;28;20350;-71
2023/06/27 13:53:10;;;;;;;;;;;25.30;59.10;;;;;;5125108;27;20421;-71
2023/06/27 13:55:36;;;;;;;;;;;25.20;59.70;;;;;;5129668;27;20367;-71
2023/06/27 13:58:01;;;;;;;;;;;25.30;59.60;;;;;;5129970;27;20272;-71
2023/06/27 14:00:27;;;;;;;;;;;25.30;59.30;;;;;;5129355;27;19911;-71
2023/06/27 14:02:52;;;;;;;;;;;25.30;59.10;;;;;;5114151;27;19912;-71
2023/06/27 14:05:18;;;;;;;;;;;25.40;59.20;;;;;;5096319;28;19953;-71
2023/06/27 14:07:43;;;;;;;;;;;25.40;58.90;;;;;;5109135;28;19913;-71
2023/06/27 14:10:09;;;;;;;;;;;25.50;58.90;;;;;;5109107;28;19927;-71